createdAt,value
2019-05-11T00:00:35.902Z,99.90
2019-05-11T00:03:05.114Z,99.90
2019-05-11T00:05:34.169Z,99.90
2019-05-11T00:08:03.091Z,99.90
2019-05-11T00:10:32.019Z,99.90
2019-05-11T00:13:00.986Z,99.90
2019-05-11T00:15:29.935Z,99.90
2019-05-11T00:17:58.849Z,99.90
2019-05-11T00:20:27.785Z,99.90
2019-05-11T00:22:56.726Z,99.90
2019-05-11T00:25:28.601Z,99.90
2019-05-11T00:27:57.606Z,99.90
2019-05-11T00:30:26.683Z,99.90
2019-05-11T00:32:55.598Z,99.90
2019-05-11T00:35:24.471Z,99.90
2019-05-11T00:37:53.562Z,99.90
2019-05-11T00:40:22.504Z,99.90
2019-05-11T00:42:51.463Z,99.90
2019-05-11T00:45:20.416Z,99.90
2019-05-11T00:47:49.378Z,99.90
2019-05-11T00:50:18.402Z,99.90
2019-05-11T00:52:47.501Z,99.90
2019-05-11T00:55:16.623Z,99.90
2019-05-11T00:57:45.571Z,99.90
2019-05-11T01:00:15.307Z,99.90
2019-05-11T01:02:44.259Z,99.90
2019-05-11T01:05:13.513Z,99.90
2019-05-11T01:07:42.578Z,99.90
2019-05-11T01:10:23.771Z,99.90
2019-05-11T01:12:42.275Z,99.90
2019-05-11T01:15:12.943Z,99.90
2019-05-11T01:17:41.964Z,99.90
2019-05-11T01:20:11.175Z,99.90
2019-05-11T01:22:40.155Z,99.90
2019-05-11T01:25:09.271Z,99.90
2019-05-11T01:27:38.185Z,99.90
2019-05-11T01:30:09.114Z,99.90
2019-05-11T01:32:38.223Z,99.90
2019-05-11T01:35:07.631Z,99.90
2019-05-11T01:37:36.572Z,99.90
2019-05-11T01:40:05.975Z,99.90
2019-05-11T01:42:34.907Z,99.90
2019-05-11T01:45:04.268Z,99.90
2019-05-11T01:47:33.134Z,99.90
2019-05-11T01:50:02.563Z,99.90
2019-05-11T01:52:31.575Z,99.90
2019-05-11T01:55:00.524Z,99.90
2019-05-11T01:57:29.396Z,99.90
2019-05-11T01:59:58.311Z,99.90
2019-05-11T02:02:27.173Z,99.90
2019-05-11T02:05:13.757Z,99.90
2019-05-11T02:07:42.674Z,99.90
2019-05-11T02:10:11.976Z,99.90
2019-05-11T02:12:40.927Z,99.90
2019-05-11T02:15:09.975Z,99.90
2019-05-11T02:17:38.843Z,99.90
2019-05-11T02:20:08.152Z,99.90
2019-05-11T02:22:37.031Z,99.90
2019-05-11T02:25:06.115Z,99.90
2019-05-11T02:27:35.008Z,99.90
2019-05-11T02:30:04.240Z,99.90
2019-05-11T02:32:33.111Z,99.90
2019-05-11T02:35:02.513Z,99.90
2019-05-11T02:37:31.467Z,99.90
2019-05-11T02:40:00.423Z,99.90
2019-05-11T02:42:29.522Z,99.90
2019-05-11T02:44:58.571Z,99.90
2019-05-11T02:47:27.583Z,99.90
2019-05-11T02:49:56.524Z,99.90
2019-05-11T02:52:26.248Z,99.90
2019-05-11T02:54:57.783Z,99.90
2019-05-11T02:57:26.653Z,99.90
2019-05-11T02:59:55.624Z,99.90
2019-05-11T03:02:24.575Z,99.90
2019-05-11T03:04:53.518Z,99.90
2019-05-11T03:07:22.679Z,99.90
2019-05-11T03:09:51.573Z,99.90
2019-05-11T03:12:20.602Z,99.90
2019-05-11T03:14:49.592Z,99.90
2019-05-11T03:17:22.290Z,99.90
2019-05-11T03:19:51.244Z,99.90
2019-05-11T03:22:20.179Z,99.90
2019-05-11T03:24:49.255Z,99.90
2019-05-11T03:27:18.341Z,99.90
2019-05-11T03:29:47.378Z,99.90
2019-05-11T03:32:16.355Z,99.90
2019-05-11T03:34:45.344Z,99.90
2019-05-11T03:37:14.341Z,99.90
2019-05-11T03:39:43.215Z,99.90
2019-05-11T03:42:15.011Z,99.90
2019-05-11T03:44:42.936Z,99.90
2019-05-11T03:47:11.801Z,99.90
2019-05-11T03:49:40.773Z,99.90
2019-05-11T03:52:09.714Z,99.90
2019-05-11T03:54:38.598Z,99.90
2019-05-11T03:57:07.619Z,99.90
2019-05-11T03:59:36.600Z,99.90
2019-05-11T04:02:05.810Z,99.90
2019-05-11T04:04:34.816Z,99.90
2019-05-11T04:07:03.852Z,99.90
2019-05-11T04:09:32.944Z,99.90
2019-05-11T04:12:01.861Z,99.90
2019-05-11T04:14:30.893Z,99.90
2019-05-11T04:16:59.935Z,99.90
2019-05-11T04:19:28.952Z,99.90
2019-05-11T04:21:57.924Z,99.90
2019-05-11T04:24:26.799Z,99.90
2019-05-11T04:26:55.847Z,99.90
2019-05-11T04:29:24.850Z,99.90
2019-05-11T04:31:53.727Z,99.90
2019-05-11T04:34:22.662Z,99.90
2019-05-11T04:36:51.550Z,99.90
2019-05-11T04:39:20.600Z,99.90
2019-05-11T04:41:49.563Z,99.90
2019-05-11T04:44:18.444Z,99.90
2019-05-11T04:46:47.366Z,99.90
2019-05-11T04:49:16.231Z,99.90
2019-05-11T04:51:45.296Z,99.90
2019-05-11T04:54:14.358Z,99.90
2019-05-11T04:56:43.436Z,99.90
2019-05-11T04:59:12.398Z,99.90
2019-05-11T05:01:41.403Z,99.90
2019-05-11T05:04:14.380Z,99.90
2019-05-11T05:06:41.122Z,99.90
2019-05-11T05:09:10.139Z,99.90
2019-05-11T05:11:39.086Z,99.90
2019-05-11T05:14:10.153Z,99.90
2019-05-11T05:16:38.643Z,99.90
2019-05-11T05:19:07.523Z,99.90
2019-05-11T05:21:36.627Z,99.90
2019-05-11T05:24:05.623Z,99.90
2019-05-11T05:26:34.675Z,99.90
2019-05-11T05:29:03.693Z,99.90
2019-05-11T05:31:32.691Z,99.90
2019-05-11T05:34:01.698Z,99.90
2019-05-11T05:36:30.688Z,99.90
2019-05-11T05:38:59.607Z,99.90
2019-05-11T05:41:28.511Z,99.90
2019-05-11T05:43:57.458Z,99.90
2019-05-11T05:46:26.428Z,99.90
2019-05-11T05:48:55.446Z,99.90
2019-05-11T05:51:24.495Z,99.90
2019-05-11T05:53:53.463Z,99.90
2019-05-11T05:56:22.426Z,99.90
2019-05-11T05:58:51.322Z,99.90
2019-05-11T06:01:20.286Z,99.90
2019-05-11T06:03:49.231Z,99.90
2019-05-11T06:06:18.148Z,99.90
2019-05-11T06:08:47.034Z,99.90
2019-05-11T06:11:16.185Z,99.90
2019-05-11T06:13:46.016Z,99.90
2019-05-11T06:16:15.011Z,99.90
2019-05-11T06:18:43.996Z,99.90
2019-05-11T06:21:13.040Z,99.90
2019-05-11T06:23:42.010Z,99.90
2019-05-11T06:26:10.957Z,99.90
2019-05-11T06:28:39.919Z,99.90
2019-05-11T06:31:08.798Z,99.90
2019-05-11T06:33:37.687Z,99.90
2019-05-11T06:36:06.825Z,99.90
2019-05-11T06:38:35.759Z,99.90
2019-05-11T06:41:04.711Z,99.90
2019-05-11T06:43:33.696Z,99.90
2019-05-11T06:46:02.693Z,99.90
2019-05-11T06:48:31.690Z,99.90
2019-05-11T06:51:00.574Z,99.90
2019-05-11T06:53:29.487Z,99.90
2019-05-11T06:55:58.481Z,99.90
2019-05-11T06:58:27.498Z,99.90
2019-05-11T07:00:56.515Z,99.90
2019-05-11T07:03:25.541Z,99.90
2019-05-11T07:05:54.542Z,99.90
2019-05-11T07:08:23.506Z,99.90
2019-05-11T07:10:52.474Z,99.90
2019-05-11T07:13:21.454Z,99.90
2019-05-11T07:15:50.326Z,99.90
2019-05-11T07:18:19.316Z,99.90
2019-05-11T07:20:50.815Z,99.90
2019-05-11T07:23:18.966Z,99.90
2019-05-11T07:25:47.890Z,99.90
2019-05-11T07:28:16.772Z,99.90
2019-05-11T07:30:45.794Z,99.90
2019-05-11T07:33:14.799Z,99.90
2019-05-11T07:35:43.866Z,99.90
2019-05-11T07:38:12.895Z,98.40
2019-05-11T07:40:41.823Z,95.30
2019-05-11T07:43:10.787Z,94.40
2019-05-11T07:45:39.735Z,90.70
2019-05-11T07:48:08.622Z,84.60
2019-05-11T07:50:38.735Z,74.90
2019-05-11T07:53:08.284Z,67.70
2019-05-11T07:55:38.561Z,62.60
2019-05-11T07:58:08.095Z,59.30
2019-05-11T08:00:39.906Z,57.40
2019-05-11T08:03:09.047Z,56.40
2019-05-11T08:05:38.669Z,55.00
2019-05-11T08:08:08.693Z,54.50
2019-05-11T08:10:39.026Z,54.50
2019-05-11T08:13:09.089Z,54.80
2019-05-11T08:15:38.454Z,53.60
2019-05-11T08:18:08.556Z,53.70
2019-05-11T08:20:38.530Z,54.50
2019-05-11T08:23:09.091Z,54.70
2019-05-11T08:25:38.423Z,55.00
2019-05-11T08:28:11.785Z,56.70
2019-05-11T08:30:38.340Z,56.70
2019-05-11T08:33:08.634Z,57.70
2019-05-11T08:35:38.950Z,57.60
2019-05-11T08:38:08.914Z,57.50
2019-05-11T08:40:38.168Z,57.60
2019-05-11T08:43:08.774Z,57.30
2019-05-11T08:45:39.293Z,57.70
2019-05-11T08:48:08.626Z,57.30
2019-05-11T08:50:38.248Z,58.20
2019-05-11T08:53:08.564Z,57.20
2019-05-11T08:55:38.284Z,57.30
2019-05-11T08:58:07.987Z,57.10
2019-05-11T09:00:39.067Z,57.20
2019-05-11T09:03:08.610Z,57.50
2019-05-11T09:05:38.449Z,58.50
2019-05-11T09:08:08.263Z,57.50
2019-05-11T09:10:39.690Z,58.10
2019-05-11T09:13:08.334Z,57.20
2019-05-11T09:15:40.626Z,57.30
2019-05-11T09:18:08.496Z,58.00
2019-05-11T09:20:37.920Z,57.20
2019-05-11T09:23:08.194Z,56.90
2019-05-11T09:25:38.450Z,57.50
2019-05-11T09:28:08.536Z,58.00
2019-05-11T09:30:37.947Z,58.40
2019-05-11T09:33:08.589Z,58.20
2019-05-11T09:35:47.571Z,57.60
2019-05-11T09:38:08.523Z,57.60
2019-05-11T09:40:38.577Z,58.60
2019-05-11T09:43:08.488Z,58.70
2019-05-11T09:45:48.038Z,60.00
2019-05-11T09:48:08.731Z,58.20
2019-05-11T09:50:38.799Z,57.70
2019-05-11T09:53:08.624Z,57.90
2019-05-11T09:55:40.079Z,57.30
2019-05-11T09:58:09.039Z,57.40
2019-05-11T10:00:38.808Z,58.30
2019-05-11T10:03:08.357Z,57.20
2019-05-11T10:05:38.234Z,56.20
2019-05-11T10:08:07.959Z,56.40
2019-05-11T10:10:38.352Z,56.90
2019-05-11T10:13:08.216Z,58.30
2019-05-11T10:15:38.506Z,58.30
2019-05-11T10:18:10.751Z,59.70
2019-05-11T10:20:39.742Z,58.10
2019-05-11T10:23:08.694Z,57.80
2019-05-11T10:25:39.082Z,57.90
2019-05-11T10:28:08.790Z,58.40
2019-05-11T10:30:38.669Z,58.10
2019-05-11T10:33:08.429Z,58.10
2019-05-11T10:35:38.001Z,57.60
2019-05-11T10:38:09.062Z,56.10
2019-05-11T10:40:39.812Z,55.40
2019-05-11T10:43:09.218Z,56.60
2019-05-11T10:45:38.330Z,57.20
2019-05-11T10:48:08.819Z,57.80
2019-05-11T10:50:38.234Z,59.40
2019-05-11T10:53:07.999Z,59.00
2019-05-11T10:55:38.634Z,59.70
2019-05-11T10:58:08.585Z,59.40
2019-05-11T11:00:38.979Z,58.90
2019-05-11T11:03:08.625Z,58.40
2019-05-11T11:05:41.774Z,57.90
2019-05-11T11:08:11.156Z,58.90
2019-05-11T11:10:40.575Z,58.40
2019-05-11T11:13:09.706Z,59.60
2019-05-11T11:15:38.683Z,61.30
2019-05-11T11:18:08.482Z,60.00
2019-05-11T11:20:38.502Z,60.80
2019-05-11T11:23:08.780Z,61.10
2019-05-11T11:25:38.241Z,62.20
2019-05-11T11:28:08.539Z,61.30
2019-05-11T11:30:37.924Z,62.20
2019-05-11T11:33:07.951Z,62.30
2019-05-11T11:35:38.537Z,62.70
2019-05-11T11:38:08.661Z,62.20
2019-05-11T11:40:38.709Z,62.70
2019-05-11T11:43:08.700Z,61.60
2019-05-11T11:45:38.237Z,62.70
2019-05-11T11:48:08.671Z,63.00
2019-05-11T11:50:37.958Z,64.50
2019-05-11T11:53:08.380Z,62.10
2019-05-11T11:55:38.988Z,62.20
2019-05-11T11:58:08.461Z,61.10
2019-05-11T12:00:39.119Z,62.20
2019-05-11T12:03:08.703Z,61.10
2019-05-11T12:05:38.716Z,60.00
2019-05-11T12:08:10.419Z,60.50
2019-05-11T12:10:39.427Z,61.20
2019-05-11T12:13:08.773Z,61.80
2019-05-11T12:15:38.752Z,59.60
2019-05-11T12:18:08.374Z,59.00
2019-05-11T12:20:38.923Z,58.80
2019-05-11T12:23:08.883Z,59.60
2019-05-11T12:25:40.463Z,59.90
2019-05-11T12:28:08.538Z,58.90
2019-05-11T12:30:37.901Z,60.00
2019-05-11T12:33:08.430Z,58.80
2019-05-11T12:35:37.866Z,59.00
2019-05-11T12:38:07.776Z,58.40
2019-05-11T12:40:38.944Z,59.50
2019-05-11T12:43:08.388Z,60.20
2019-05-11T12:45:38.764Z,59.00
2019-05-11T12:48:08.991Z,58.50
2019-05-11T12:50:38.221Z,58.70
2019-05-11T12:53:08.260Z,59.40
2019-05-11T12:55:38.096Z,59.90
2019-05-11T12:58:08.576Z,59.20
2019-05-11T13:00:39.131Z,59.10
2019-05-11T13:03:08.528Z,59.30
2019-05-11T13:05:37.780Z,58.20
2019-05-11T13:08:08.038Z,58.80
2019-05-11T13:10:37.713Z,58.70
2019-05-11T13:13:08.883Z,59.00
2019-05-11T13:15:38.691Z,58.70
2019-05-11T13:18:08.512Z,57.50
2019-05-11T13:20:37.835Z,58.40
2019-05-11T13:23:07.966Z,58.10
2019-05-11T13:25:38.852Z,59.00
2019-05-11T13:28:08.514Z,58.30
2019-05-11T13:30:38.226Z,57.40
2019-05-11T13:33:08.565Z,56.50
2019-05-11T13:35:37.838Z,57.20
2019-05-11T13:38:08.671Z,56.70
2019-05-11T13:40:38.367Z,56.60
2019-05-11T13:43:08.319Z,56.90
2019-05-11T13:45:38.719Z,58.00
2019-05-11T13:48:08.518Z,58.50
2019-05-11T13:50:38.646Z,59.60
2019-05-11T13:53:07.906Z,59.50
2019-05-11T13:55:38.751Z,59.80
2019-05-11T13:58:08.307Z,58.50
2019-05-11T14:00:38.059Z,58.90
2019-05-11T14:03:08.467Z,59.90
2019-05-11T14:05:37.997Z,59.30
2019-05-11T14:08:08.181Z,60.00
2019-05-11T14:10:38.342Z,59.50
2019-05-11T14:13:08.826Z,60.10
2019-05-11T14:15:38.340Z,59.10
2019-05-11T14:18:09.457Z,57.90
2019-05-11T14:20:38.336Z,58.50
2019-05-11T14:23:07.850Z,59.30
2019-05-11T14:25:38.154Z,59.70
2019-05-11T14:28:08.784Z,60.10
2019-05-11T14:30:38.836Z,59.80
2019-05-11T14:33:08.769Z,59.40
2019-05-11T14:35:38.479Z,61.00
2019-05-11T14:38:08.162Z,62.50
2019-05-11T14:40:38.784Z,63.20
2019-05-11T14:43:08.470Z,62.90
2019-05-11T14:45:38.094Z,62.40
2019-05-11T14:48:22.507Z,63.20
2019-05-11T14:50:38.612Z,63.70
2019-05-11T14:53:08.657Z,62.90
2019-05-11T14:55:38.231Z,63.20
2019-05-11T14:58:08.317Z,63.70
2019-05-11T15:00:39.254Z,63.80
2019-05-11T15:03:08.427Z,65.20
2019-05-11T15:05:38.612Z,64.90
2019-05-11T15:08:08.752Z,63.90
2019-05-11T15:10:38.409Z,63.40
2019-05-11T15:13:08.050Z,63.30
2019-05-11T15:15:39.270Z,64.30
2019-05-11T15:18:08.512Z,64.50
2019-05-11T15:20:38.765Z,69.00
2019-05-11T15:23:08.794Z,75.50
2019-05-11T15:25:38.376Z,83.90
2019-05-11T15:28:08.880Z,88.50
2019-05-11T15:30:38.197Z,93.00
2019-05-11T15:33:07.859Z,95.00
2019-05-11T15:35:37.729Z,94.90
2019-05-11T15:38:08.694Z,95.70
2019-05-11T15:40:38.241Z,97.10
2019-05-11T15:43:08.791Z,97.30
2019-05-11T15:45:38.152Z,97.70
2019-05-11T15:48:08.440Z,98.30
2019-05-11T15:50:40.038Z,98.30
2019-05-11T15:53:08.855Z,97.90
2019-05-11T15:55:39.366Z,98.50
2019-05-11T15:58:08.702Z,99.50
2019-05-11T16:00:39.973Z,99.90
2019-05-11T16:03:08.487Z,99.90
2019-05-11T16:05:37.636Z,99.90
2019-05-11T16:08:08.391Z,99.90
2019-05-11T16:10:38.456Z,99.90
2019-05-11T16:13:09.240Z,99.90
2019-05-11T16:15:38.515Z,99.90
2019-05-11T16:18:08.371Z,99.90
2019-05-11T16:20:37.556Z,99.90
2019-05-11T16:23:06.517Z,99.90
2019-05-11T16:25:38.171Z,99.90
2019-05-11T16:28:07.818Z,99.90
2019-05-11T16:30:37.849Z,99.90
2019-05-11T16:33:08.721Z,99.90
2019-05-11T16:35:38.259Z,99.90
2019-05-11T16:38:08.178Z,99.90
2019-05-11T16:40:38.676Z,99.90
2019-05-11T16:43:08.570Z,99.90
2019-05-11T16:45:37.687Z,99.90
2019-05-11T16:48:07.978Z,99.90
2019-05-11T16:50:38.411Z,99.90
2019-05-11T16:53:07.507Z,99.90
2019-05-11T16:55:37.716Z,99.90
2019-05-11T16:58:08.169Z,99.90
2019-05-11T17:00:41.907Z,99.90
2019-05-11T17:03:08.204Z,99.90
2019-05-11T17:05:38.262Z,99.90
2019-05-11T17:08:08.122Z,99.90
2019-05-11T17:10:38.390Z,99.90
2019-05-11T17:13:08.590Z,99.90
2019-05-11T17:15:37.686Z,99.90
2019-05-11T17:18:08.028Z,99.90
2019-05-11T17:20:37.366Z,99.90
2019-05-11T17:23:06.383Z,99.90
2019-05-11T17:25:35.283Z,99.90
2019-05-11T17:28:06.882Z,99.90
2019-05-11T17:30:35.095Z,99.90
2019-05-11T17:33:04.243Z,99.90
2019-05-11T17:35:33.392Z,99.90
2019-05-11T17:38:02.286Z,99.90
2019-05-11T17:40:31.483Z,99.90
2019-05-11T17:43:01.172Z,99.90
2019-05-11T17:45:30.163Z,99.90
2019-05-11T17:47:59.038Z,99.90
2019-05-11T17:50:28.294Z,99.90
2019-05-11T17:52:57.457Z,99.90
2019-05-11T17:55:28.667Z,99.90
2019-05-11T17:57:58.247Z,99.90
2019-05-11T18:00:28.357Z,99.90
2019-05-11T18:02:58.319Z,99.90
2019-05-11T18:05:27.530Z,99.90
2019-05-11T18:07:58.005Z,99.90
2019-05-11T18:10:28.326Z,99.90
2019-05-11T18:12:57.904Z,99.90
2019-05-11T18:15:27.237Z,99.90
2019-05-11T18:17:58.637Z,99.90
2019-05-11T18:20:28.697Z,99.90
2019-05-11T18:22:57.984Z,99.90
2019-05-11T18:25:28.768Z,99.90
2019-05-11T18:27:59.399Z,99.90
2019-05-11T18:30:29.311Z,99.90
2019-05-11T18:32:59.486Z,99.90
2019-05-11T18:35:28.779Z,99.90
2019-05-11T18:37:57.693Z,99.90
2019-05-11T18:40:28.585Z,99.90
2019-05-11T18:42:57.843Z,99.90
2019-05-11T18:45:28.805Z,99.90
2019-05-11T18:47:57.744Z,99.90
2019-05-11T18:50:31.355Z,99.90
2019-05-11T18:52:58.132Z,99.90
2019-05-11T18:55:28.131Z,99.90
2019-05-11T18:57:58.115Z,99.90
2019-05-11T19:00:27.687Z,99.90
2019-05-11T19:02:57.986Z,99.90
2019-05-11T19:05:28.986Z,99.90
2019-05-11T19:07:58.411Z,99.90
2019-05-11T19:10:27.868Z,99.90
2019-05-11T19:12:58.983Z,99.90
2019-05-11T19:15:28.239Z,99.90
2019-05-11T19:17:58.167Z,99.90
2019-05-11T19:20:28.298Z,99.90
2019-05-11T19:22:59.004Z,99.90
2019-05-11T19:25:28.347Z,99.90
2019-05-11T19:27:58.938Z,99.90
2019-05-11T19:30:28.104Z,99.90
2019-05-11T19:32:59.044Z,99.90
2019-05-11T19:35:28.630Z,99.90
2019-05-11T19:37:58.378Z,99.90
2019-05-11T19:40:27.471Z,99.90
2019-05-11T19:42:59.081Z,99.90
2019-05-11T19:45:29.413Z,99.90
2019-05-11T19:47:58.708Z,99.90
2019-05-11T19:50:27.749Z,99.90
2019-05-11T19:52:58.011Z,99.90
2019-05-11T19:55:28.521Z,99.90
2019-05-11T19:57:57.986Z,99.90
2019-05-11T20:00:27.019Z,99.90
2019-05-11T20:02:58.383Z,99.90
2019-05-11T20:05:28.795Z,99.90
2019-05-11T20:07:58.735Z,99.90
2019-05-11T20:10:28.074Z,99.90
2019-05-11T20:12:58.843Z,99.90
2019-05-11T20:15:27.999Z,99.90
2019-05-11T20:17:58.611Z,99.90
2019-05-11T20:20:28.388Z,99.90
2019-05-11T20:22:58.451Z,99.90
2019-05-11T20:25:28.747Z,99.90
2019-05-11T20:27:58.572Z,99.90
2019-05-11T20:30:27.798Z,99.90
2019-05-11T20:32:56.728Z,99.90
2019-05-11T20:35:27.787Z,99.90
2019-05-11T20:37:58.152Z,99.90
2019-05-11T20:40:28.585Z,99.90
2019-05-11T20:42:58.716Z,99.90
2019-05-11T20:45:28.571Z,99.90
2019-05-11T20:47:57.807Z,99.90
2019-05-11T20:50:26.742Z,99.90
2019-05-11T20:52:58.050Z,99.90
2019-05-11T20:55:28.399Z,99.90
2019-05-11T20:57:58.262Z,99.90
2019-05-11T21:00:28.010Z,99.90
2019-05-11T21:02:58.907Z,99.90
2019-05-11T21:05:27.663Z,99.90
2019-05-11T21:07:57.862Z,99.90
2019-05-11T21:10:28.042Z,99.90
2019-05-11T21:12:57.868Z,99.90
2019-05-11T21:15:28.080Z,99.90
2019-05-11T21:17:58.583Z,99.90
2019-05-11T21:20:28.722Z,99.90
2019-05-11T21:22:58.162Z,99.90
2019-05-11T21:25:28.669Z,99.90
2019-05-11T21:27:58.100Z,99.90
2019-05-11T21:30:27.133Z,99.90
2019-05-11T21:32:58.133Z,99.90
2019-05-11T21:35:28.118Z,99.90
2019-05-11T21:37:57.975Z,99.90
2019-05-11T21:40:29.063Z,99.90
2019-05-11T21:42:58.136Z,99.90
2019-05-11T21:45:28.384Z,99.90
2019-05-11T21:47:58.023Z,99.90
2019-05-11T21:50:27.934Z,99.90
2019-05-11T21:52:58.975Z,99.90
2019-05-11T21:55:29.315Z,99.90
2019-05-11T21:57:58.405Z,99.90
2019-05-11T22:00:29.709Z,99.90
2019-05-11T22:02:58.862Z,99.90
2019-05-11T22:05:28.873Z,99.90
2019-05-11T22:07:58.375Z,99.90
2019-05-11T22:10:28.347Z,99.90
2019-05-11T22:12:57.523Z,99.90
2019-05-11T22:15:28.426Z,99.90
2019-05-11T22:17:58.539Z,99.90
2019-05-11T22:20:28.747Z,99.90
2019-05-11T22:22:58.323Z,99.90
2019-05-11T22:25:28.687Z,99.90
2019-05-11T22:27:57.891Z,99.90
2019-05-11T22:30:27.822Z,99.90
2019-05-11T22:32:58.343Z,99.90
2019-05-11T22:35:28.630Z,99.90
2019-05-11T22:37:57.908Z,99.90
2019-05-11T22:40:28.118Z,99.90
2019-05-11T22:43:01.552Z,99.90
2019-05-11T22:45:42.471Z,99.90
2019-05-11T22:48:11.954Z,99.90
2019-05-11T22:50:43.683Z,99.90
2019-05-11T22:53:12.142Z,99.90
2019-05-11T22:55:41.058Z,99.90
2019-05-11T22:58:09.951Z,99.90
2019-05-11T23:00:43.771Z,99.90
2019-05-11T23:03:12.867Z,99.90
2019-05-11T23:05:42.652Z,99.90
2019-05-11T23:08:11.805Z,99.90
2019-05-11T23:10:40.840Z,99.90
2019-05-11T23:13:11.444Z,99.90
2019-05-11T23:15:40.730Z,99.90
2019-05-11T23:18:09.665Z,99.90
2019-05-11T23:20:38.949Z,99.90
2019-05-11T23:23:08.712Z,99.90
2019-05-11T23:25:38.074Z,99.90
2019-05-11T23:28:07.240Z,99.90
2019-05-11T23:30:38.674Z,99.90
2019-05-11T23:33:07.940Z,99.90
2019-05-11T23:35:38.203Z,99.90
2019-05-11T23:38:07.955Z,99.90
2019-05-11T23:40:37.980Z,99.90
2019-05-11T23:43:08.624Z,99.90
2019-05-11T23:45:38.375Z,99.90
2019-05-11T23:48:07.572Z,99.90
2019-05-11T23:50:38.705Z,99.90
2019-05-11T23:53:10.045Z,99.90
2019-05-11T23:55:38.150Z,99.90
2019-05-11T23:58:08.214Z,99.90
